Wayne, West Virginia
Current Conditions -  °F | °C
As of 3:51 AM on Wednesday 26 Nov 2014 (Local Time) from KHTS Reporting Station
Clear Clear  
Wind Chill: 30°   Ceiling: Unl
Heat Index: 36°   Visibility: 10mi
Dew Point: 28°   Wind: 7mph
Humidity: 73%   Direction: 360°N
Pressure: 30.07"   Gusts: NA
Location:  38.22°N, 82.44°W
Report Text: KHTS 260851Z 36006KT 10SM CLR 02/M02 A3007 RMK AO2 SLP185 T00221022 55017
Loading
Personal Weather Stations






























Interactive Weather Map New forecast layout! Learn more

10-Day Weather Forecast

Advertisements
Track Severe Weather on mobile